Time;durP1;ratioP1;P1;durP2;ratioP2;P2;SDS_P1;SDS_P2;PMS_P1;PMS_P2;Temp;Humidity;BMP_temperature;BMP_pressure;BME280_temperature;BME280_humidity;BME280_pressure;Samples;Min_cycle;Max_cycle;Signal;HPM_P1;HPM_P2
2024/01/19 00:01:13;;;;;;;13.90;10.40;;;;;;;-3.23;100.00;101175.22;5028021;28;20112;-63
2024/01/19 00:03:39;;;;;;;11.93;9.37;;;;;;;-3.22;100.00;101171.03;5027429;28;20064;-63
2024/01/19 00:06:04;;;;;;;12.10;9.83;;;;;;;-3.24;100.00;101180.16;5027936;28;20061;-63
2024/01/19 00:08:29;;;;;;;12.70;9.40;;;;;;;-3.24;100.00;101173.44;5027890;28;20041;-64
2024/01/19 00:10:55;;;;;;;12.70;9.83;;;;;;;-3.24;100.00;101180.16;5026954;28;20034;-63
2024/01/19 00:13:20;;;;;;;13.43;11.00;;;;;;;-3.26;100.00;101175.81;5027365;28;20033;-63
2024/01/19 00:15:46;;;;;;;14.37;10.63;;;;;;;-3.24;100.00;101168.38;5028132;28;20037;-63
2024/01/19 00:18:11;;;;;;;15.70;10.43;;;;;;;-3.27;100.00;101179.09;5027802;28;20030;-63
2024/01/19 00:20:37;;;;;;;16.37;10.30;;;;;;;-3.26;100.00;101175.81;5027628;28;20462;-63
2024/01/19 00:23:02;;;;;;;16.70;9.87;;;;;;;-3.25;100.00;101184.31;5027797;28;20053;-61
2024/01/19 00:25:27;;;;;;;10.40;8.80;;;;;;;-3.24;100.00;101181.06;5026762;28;20095;-63
2024/01/19 00:27:53;;;;;;;13.03;8.87;;;;;;;-3.23;100.00;101187.00;5027968;28;20115;-63
2024/01/19 00:30:18;;;;;;;13.23;9.43;;;;;;;-3.26;100.00;101185.09;5027353;28;20037;-63
2024/01/19 00:32:43;;;;;;;12.47;8.77;;;;;;;-3.28;100.00;101186.56;5027416;28;20029;-63
2024/01/19 00:35:09;;;;;;;12.70;9.43;;;;;;;-3.25;100.00;101191.91;5027643;28;20386;-63
2024/01/19 00:37:34;;;;;;;12.50;9.27;;;;;;;-3.24;100.00;101193.72;5027388;28;20477;-63
2024/01/19 00:39:59;;;;;;;14.37;9.60;;;;;;;-3.24;100.00;101197.91;5027485;28;20022;-63
2024/01/19 00:42:24;;;;;;;12.73;9.00;;;;;;;-3.23;100.00;101203.09;5027142;28;20473;-64
2024/01/19 00:44:50;;;;;;;10.37;9.13;;;;;;;-3.24;100.00;101203.88;5027922;28;20124;-63
2024/01/19 00:47:16;;;;;;;14.97;8.77;;;;;;;-3.26;100.00;101200.28;5028125;28;20021;-63
2024/01/19 00:49:41;;;;;;;13.40;8.93;;;;;;;-3.28;100.00;101206.84;5027803;28;20099;-63
2024/01/19 00:52:07;;;;;;;11.40;8.70;;;;;;;-3.29;100.00;101210.16;5027212;28;20053;-63
2024/01/19 00:54:32;;;;;;;12.70;8.97;;;;;;;-3.29;100.00;101211.03;5028109;28;20509;-63
2024/01/19 00:56:58;;;;;;;14.90;8.93;;;;;;;-3.31;100.00;101207.44;5027685;28;20028;-63
2024/01/19 00:59:23;;;;;;;16.37;8.23;;;;;;;-3.30;100.00;101215.94;5028024;28;20037;-63
2024/01/19 01:01:48;;;;;;;12.37;8.53;;;;;;;-3.31;100.00;101214.19;5027420;28;20026;-63
2024/01/19 01:04:14;;;;;;;12.40;7.87;;;;;;;-3.32;100.00;101212.38;5025761;28;20396;-63
2024/01/19 01:06:39;;;;;;;11.23;7.90;;;;;;;-3.34;100.00;101213.88;5027647;28;20041;-63
2024/01/19 01:09:05;;;;;;;15.03;9.23;;;;;;;-3.36;100.00;101213.72;5027360;28;20013;-63
2024/01/19 01:11:30;;;;;;;14.93;8.73;;;;;;;-3.36;100.00;101212.84;5027327;28;20091;-63
2024/01/19 01:13:55;;;;;;;12.93;7.87;;;;;;;-3.38;100.00;101217.75;5027536;28;20245;-63
2024/01/19 01:16:21;;;;;;;18.27;8.83;;;;;;;-3.38;100.00;101222.81;5027676;28;20480;-64
2024/01/19 01:18:46;;;;;;;10.97;8.20;;;;;;;-3.39;100.00;101214.34;5026976;28;20029;-63
2024/01/19 01:21:12;;;;;;;11.80;8.77;;;;;;;-3.36;100.00;101223.00;5027444;28;20033;-63
2024/01/19 01:23:37;;;;;;;12.70;8.17;;;;;;;-3.39;100.00;101224.50;5027741;28;20044;-63
2024/01/19 01:26:02;;;;;;;11.60;7.93;;;;;;;-3.39;100.00;101228.66;5028124;28;20060;-63
2024/01/19 01:28:28;;;;;;;11.07;8.20;;;;;;;-3.43;100.00;101235.06;5027023;28;20095;-63
2024/01/19 01:30:53;;;;;;;16.13;9.10;;;;;;;-3.45;100.00;101234.03;5026990;28;20120;-63
2024/01/19 01:33:20;;;;;;;14.77;8.13;;;;;;;-3.46;100.00;101241.50;5026815;28;20095;-63
2024/01/19 01:35:45;;;;;;;10.80;8.10;;;;;;;-3.48;100.00;101237.91;5025860;28;20034;-63
2024/01/19 01:38:10;;;;;;;12.07;8.57;;;;;;;-3.50;100.00;101243.75;5027350;28;20036;-63
2024/01/19 01:40:36;;;;;;;13.23;8.53;;;;;;;-3.53;100.00;101240.03;5027480;28;20100;-63
2024/01/19 01:43:02;;;;;;;13.07;8.80;;;;;;;-3.51;100.00;101236.88;5026720;28;20047;-63
2024/01/19 01:45:29;;;;;;;10.73;8.43;;;;;;;-3.48;100.00;101245.53;5027248;28;20026;-63
2024/01/19 01:47:54;;;;;;;12.03;8.73;;;;;;;-3.48;100.00;101240.44;5027344;28;20430;-63
2024/01/19 01:50:20;;;;;;;11.73;8.63;;;;;;;-3.48;100.00;101243.88;5027176;28;20028;-63
2024/01/19 01:52:46;;;;;;;9.13;8.20;;;;;;;-3.47;100.00;101250.72;5026673;28;20050;-63
2024/01/19 01:55:12;;;;;;;10.10;8.00;;;;;;;-3.47;100.00;101253.25;5026750;28;20296;-63
2024/01/19 01:57:39;;;;;;;10.67;7.90;;;;;;;-3.44;100.00;101255.22;5026971;28;20374;-63
2024/01/19 02:00:08;;;;;;;9.37;7.40;;;;;;;-3.45;100.00;101253.44;5026863;28;20104;-63
2024/01/19 02:02:33;;;;;;;12.50;8.97;;;;;;;-3.46;100.00;101260.13;5027162;28;20450;-63
2024/01/19 02:04:58;;;;;;;9.97;6.97;;;;;;;-3.46;100.00;101256.69;5026516;28;20067;-63
2024/01/19 02:07:24;;;;;;;10.27;7.17;;;;;;;-3.48;100.00;101264.16;5027554;28;20034;-63
2024/01/19 02:09:49;;;;;;;11.53;7.17;;;;;;;-3.50;100.00;101266.56;5026877;28;20037;-63
2024/01/19 02:12:15;;;;;;;8.97;5.57;;;;;;;-3.52;100.00;101262.06;5026399;28;20079;-63
2024/01/19 02:14:40;;;;;;;9.40;6.43;;;;;;;-3.51;100.00;101263.88;5027330;28;20036;-63
2024/01/19 02:17:05;;;;;;;9.47;6.13;;;;;;;-3.48;100.00;101264.16;5026847;28;20489;-63
2024/01/19 02:19:35;;;;;;;8.97;6.03;;;;;;;-3.46;100.00;101272.81;5026102;28;20072;-63
2024/01/19 02:22:00;;;;;;;10.70;6.50;;;;;;;-3.46;100.00;101272.81;5026648;28;20030;-63
2024/01/19 02:24:26;;;;;;;7.93;5.67;;;;;;;-3.46;100.00;101282.94;5026966;28;20058;-63
2024/01/19 02:26:51;;;;;;;8.17;5.63;;;;;;;-3.44;100.00;101285.63;5026464;28;20116;-63
2024/01/19 02:29:18;;;;;;;8.07;5.93;;;;;;;-3.41;100.00;101279.22;5026547;28;20472;-63
2024/01/19 02:31:43;;;;;;;10.07;6.10;;;;;;;-3.40;100.00;101290.25;5025794;28;20030;-63
2024/01/19 02:34:08;;;;;;;8.90;5.77;;;;;;;-3.43;100.00;101293.38;5026444;28;20034;-63
2024/01/19 02:36:33;;;;;;;8.87;6.33;;;;;;;-3.50;100.00;101296.06;5028818;28;20052;-63
2024/01/19 02:38:59;;;;;;;8.70;5.33;;;;;;;-3.52;100.00;101300.09;5029832;28;20056;-63
2024/01/19 02:41:24;;;;;;;8.27;4.33;;;;;;;-3.49;100.00;101297.88;5029463;28;20022;-63
2024/01/19 02:43:49;;;;;;;9.47;4.80;;;;;;;-3.47;100.00;101301.41;5029311;28;20029;-63
2024/01/19 02:46:18;;;;;;;7.50;4.50;;;;;;;-3.45;100.00;101305.00;5029491;28;20454;-63
2024/01/19 02:48:43;;;;;;;6.00;4.27;;;;;;;-3.41;100.00;101304.56;5029657;28;20044;-63
2024/01/19 02:51:08;;;;;;;6.90;4.70;;;;;;;-3.33;100.00;101312.00;5029590;28;20041;-63
2024/01/19 02:53:34;;;;;;;7.63;4.87;;;;;;;-3.27;100.00;101315.13;5029126;28;20029;-63
2024/01/19 02:56:00;;;;;;;8.40;5.10;;;;;;;-3.23;100.00;101313.75;5029519;28;20022;-63
2024/01/19 02:58:25;;;;;;;9.43;5.03;;;;;;;-3.18;100.00;101320.16;5029406;28;20033;-63
2024/01/19 03:00:51;;;;;;;7.90;5.50;;;;;;;-3.16;100.00;101313.59;5029627;28;20028;-63
2024/01/19 03:03:16;;;;;;;6.93;4.83;;;;;;;-3.13;100.00;101322.41;5029449;28;20501;-63
2024/01/19 03:05:41;;;;;;;7.00;5.10;;;;;;;-3.05;100.00;101320.59;5028797;28;20116;-63
2024/01/19 03:08:06;;;;;;;7.27;5.43;;;;;;;-3.02;100.00;101327.59;5029021;28;20033;-63
2024/01/19 03:10:32;;;;;;;10.60;5.50;;;;;;;-3.01;100.00;101329.41;5028504;28;20022;-63
2024/01/19 03:12:57;;;;;;;11.43;6.60;;;;;;;-2.99;100.00;101327.91;5028995;28;20096;-63
2024/01/19 03:15:22;;;;;;;10.43;5.93;;;;;;;-2.98;100.00;101329.69;5028063;28;20086;-63
2024/01/19 03:17:47;;;;;;;9.97;7.17;;;;;;;-2.97;100.00;101326.41;5028764;28;20029;-63
2024/01/19 03:20:13;;;;;;;9.80;6.83;;;;;;;-2.90;100.00;101318.59;5028691;28;20010;-63
2024/01/19 03:22:38;;;;;;;10.13;7.87;;;;;;;-2.91;100.00;101321.00;5028495;28;20025;-63
2024/01/19 03:25:04;;;;;;;12.40;7.43;;;;;;;-2.90;100.00;101321.13;5028003;28;20021;-63
2024/01/19 03:27:29;;;;;;;9.37;7.20;;;;;;;-2.89;100.00;101332.19;5028685;28;20035;-63
2024/01/19 03:29:56;;;;;;;10.53;7.70;;;;;;;-2.90;100.00;101331.28;5028057;28;21976;-63
2024/01/19 03:32:21;;;;;;;9.23;8.10;;;;;;;-2.88;100.00;101336.53;5028500;28;20060;-63
2024/01/19 03:34:47;;;;;;;9.60;8.20;;;;;;;-2.88;100.00;101328.03;5027949;28;20022;-63
2024/01/19 03:37:13;;;;;;;12.70;9.00;;;;;;;-2.88;100.00;101331.47;5028731;28;20028;-63
2024/01/19 03:39:38;;;;;;;13.43;8.53;;;;;;;-2.88;100.00;101328.03;5028161;28;20465;-63
2024/01/19 03:42:03;;;;;;;13.20;8.83;;;;;;;-2.87;100.00;101332.34;5028149;28;20112;-63
2024/01/19 03:44:28;;;;;;;16.67;9.63;;;;;;;-2.84;100.00;101327.56;5027543;28;20025;-63
2024/01/19 03:46:54;;;;;;;14.83;10.10;;;;;;;-2.85;100.00;101329.22;5024436;28;20025;-63
2024/01/19 03:49:19;;;;;;;11.87;9.57;;;;;;;-2.84;100.00;101337.72;5026576;28;20036;-63
2024/01/19 03:52:04;;;;;;;13.60;10.70;;;;;;;-2.85;100.00;101339.34;5028433;28;20116;-63
2024/01/19 03:54:29;;;;;;;11.63;10.43;;;;;;;-2.83;100.00;101339.50;5028132;28;20037;-63
2024/01/19 03:56:58;;;;;;;14.20;10.47;;;;;;;-2.84;100.00;101343.66;5028317;28;20059;-63
2024/01/19 03:59:23;;;;;;;14.10;10.30;;;;;;;-2.83;100.00;101340.41;5027959;28;20104;-63
2024/01/19 04:01:49;;;;;;;14.00;10.60;;;;;;;-2.84;100.00;101342.78;5028045;28;20029;-64
2024/01/19 04:04:15;;;;;;;12.60;10.27;;;;;;;-2.86;100.00;101339.22;5027992;28;20033;-63
2024/01/19 04:06:40;;;;;;;14.90;10.97;;;;;;;-2.84;100.00;101342.78;5027636;28;20080;-63
2024/01/19 04:09:06;;;;;;;15.67;10.57;;;;;;;-2.82;100.00;101341.28;5027637;28;20031;-63
2024/01/19 04:11:33;;;;;;;16.30;11.40;;;;;;;-2.83;100.00;101345.47;5027594;28;20026;-63
2024/01/19 04:13:59;;;;;;;14.13;11.23;;;;;;;-2.80;100.00;101343.22;5027453;28;20025;-63
2024/01/19 04:16:24;;;;;;;13.67;11.07;;;;;;;-2.80;100.00;101352.47;5027641;28;20036;-63
2024/01/19 04:18:49;;;;;;;15.60;11.57;;;;;;;-2.82;100.00;101354.84;5027113;28;20108;-64
2024/01/19 04:21:14;;;;;;;15.27;11.90;;;;;;;-2.82;100.00;101357.41;5027262;28;20032;-63
2024/01/19 04:23:40;;;;;;;13.97;11.73;;;;;;;-2.81;100.00;101364.28;5027627;28;20078;-63
2024/01/19 04:26:05;;;;;;;15.70;11.27;;;;;;;-2.82;100.00;101365.00;5027598;28;20024;-63
2024/01/19 04:28:30;;;;;;;25.27;13.20;;;;;;;-2.81;100.00;101378.59;5027658;28;20036;-63
2024/01/19 04:30:56;;;;;;;14.23;12.60;;;;;;;-2.82;100.00;101379.31;5026941;28;20435;-63
2024/01/19 04:33:21;;;;;;;17.87;12.67;;;;;;;-2.80;100.00;101375.28;5027213;28;20025;-63
2024/01/19 04:35:46;;;;;;;18.60;13.43;;;;;;;-2.83;100.00;101380.09;5027198;28;20025;-63
2024/01/19 04:38:11;;;;;;;17.87;12.87;;;;;;;-2.82;100.00;101386.94;5027180;28;20489;-63
2024/01/19 04:40:37;;;;;;;19.30;13.77;;;;;;;-2.81;100.00;101388.75;5027572;28;20055;-63
2024/01/19 04:43:02;;;;;;;20.37;14.23;;;;;;;-2.85;100.00;101390.09;5027238;28;20029;-63
2024/01/19 04:45:27;;;;;;;18.97;14.17;;;;;;;-2.86;100.00;101395.03;5027406;28;20420;-63
2024/01/19 04:47:53;;;;;;;17.67;13.83;;;;;;;-2.86;100.00;101395.03;5026691;28;20029;-63
2024/01/19 04:50:18;;;;;;;17.20;13.70;;;;;;;-2.92;100.00;101401.31;5027035;28;20055;-63
2024/01/19 04:52:43;;;;;;;18.27;14.23;;;;;;;-2.93;100.00;101404.56;5027278;28;20054;-62
2024/01/19 04:55:08;;;;;;;16.07;13.30;;;;;;;-2.95;100.00;101410.28;5027136;28;20033;-63
2024/01/19 04:57:34;;;;;;;17.70;14.03;;;;;;;-2.98;100.00;101413.38;5026853;28;20045;-63
2024/01/19 04:59:59;;;;;;;20.63;13.60;;;;;;;-2.96;100.00;101413.53;5026708;28;20037;-63
2024/01/19 05:02:24;;;;;;;14.43;12.93;;;;;;;-2.96;100.00;101414.44;5026709;28;20431;-63
2024/01/19 05:04:50;;;;;;;15.20;13.00;;;;;;;-2.98;100.00;101420.09;5026759;28;20032;-63
2024/01/19 05:07:15;;;;;;;14.03;12.57;;;;;;;-3.00;100.00;101419.94;5027342;28;20491;-63
2024/01/19 05:09:41;;;;;;;16.60;12.10;;;;;;;-3.03;100.00;101407.88;5026966;28;20116;-63
2024/01/19 05:12:06;;;;;;;16.43;13.00;;;;;;;-3.03;100.00;101409.53;5026151;28;20090;-63
2024/01/19 05:14:31;;;;;;;16.40;13.13;;;;;;;-3.05;100.00;101409.38;5026603;28;20044;-63
2024/01/19 05:16:57;;;;;;;14.03;12.27;;;;;;;-3.03;100.00;101417.13;5026956;28;20037;-63
2024/01/19 05:19:22;;;;;;;16.90;12.90;;;;;;;-3.00;100.00;101432.63;5026004;28;20458;-63
2024/01/19 05:21:47;;;;;;;15.73;12.67;;;;;;;-2.99;100.00;101424.28;5026473;28;20014;-63
2024/01/19 05:24:13;;;;;;;14.43;12.93;;;;;;;-3.04;100.00;101430.56;5026667;28;20040;-63
2024/01/19 05:26:38;;;;;;;19.70;13.37;;;;;;;-3.05;100.00;101438.91;5027158;28;20060;-63
2024/01/19 05:29:03;;;;;;;20.80;13.90;;;;;;;-3.09;100.00;101431.75;5026290;28;20477;-63
2024/01/19 05:31:28;;;;;;;13.43;12.07;;;;;;;-3.10;100.00;101442.66;5026299;28;20029;-63
2024/01/19 05:33:54;;;;;;;15.93;13.33;;;;;;;-3.07;100.00;101437.84;5026257;28;20307;-62
2024/01/19 05:36:20;;;;;;;18.57;12.87;;;;;;;-3.08;100.00;101453.84;5026736;28;20024;-63
2024/01/19 05:38:45;;;;;;;15.23;13.63;;;;;;;-3.07;100.00;101465.75;5015177;28;20026;-63
2024/01/19 05:41:11;;;;;;;17.60;13.23;;;;;;;-3.10;100.00;101465.47;5026840;28;20028;-63
2024/01/19 05:43:36;;;;;;;14.83;11.87;;;;;;;-3.11;100.00;101481.44;5026908;28;20040;-63
2024/01/19 05:46:01;;;;;;;14.73;12.23;;;;;;;-3.16;100.00;101479.34;5027187;28;20036;-63
2024/01/19 05:48:27;;;;;;;14.87;12.10;;;;;;;-3.14;100.00;101495.63;5026472;28;20516;-63
2024/01/19 05:50:53;;;;;;;18.33;13.07;;;;;;;-3.18;100.00;101497.69;5026115;28;20561;-63
2024/01/19 05:53:18;;;;;;;14.33;12.83;;;;;;;-3.19;100.00;101501.88;5025949;28;20551;-63
2024/01/19 05:55:43;;;;;;;15.00;12.90;;;;;;;-3.22;100.00;101506.63;5026470;28;20124;-63
2024/01/19 05:58:08;;;;;;;18.17;13.50;;;;;;;-3.25;100.00;101511.41;5026554;28;20060;-63
2024/01/19 06:00:34;;;;;;;17.10;12.57;;;;;;;-3.24;100.00;101522.44;5026336;28;20059;-63
2024/01/19 06:02:59;;;;;;;17.43;13.30;;;;;;;-3.24;100.00;101522.44;5026561;28;20096;-63
2024/01/19 06:05:24;;;;;;;18.07;13.03;;;;;;;-3.20;100.00;101525.44;5026508;28;20030;-63
2024/01/19 06:07:49;;;;;;;16.47;12.67;;;;;;;-3.22;100.00;101520.97;5026184;28;20037;-63
2024/01/19 06:10:15;;;;;;;15.93;12.90;;;;;;;-3.26;100.00;101524.84;5028065;28;20417;-63
2024/01/19 06:12:41;;;;;;;15.13;12.47;;;;;;;-3.25;100.00;101536.75;5030610;28;20124;-63
2024/01/19 06:15:06;;;;;;;18.40;12.63;;;;;;;-3.25;100.00;101536.75;5029456;28;20055;-63
2024/01/19 06:17:31;;;;;;;13.97;12.13;;;;;;;-3.24;100.00;101553.78;5029614;28;20079;-63
2024/01/19 06:19:57;;;;;;;18.53;14.33;;;;;;;-3.24;100.00;101556.31;5029908;28;20040;-63
2024/01/19 06:22:22;;;;;;;15.63;13.13;;;;;;;-3.21;100.00;101568.38;5030440;28;20029;-63
2024/01/19 06:24:51;;;;;;;14.97;12.70;;;;;;;-3.19;100.00;101557.66;5029728;28;20033;-63
2024/01/19 06:27:19;;;;;;;13.87;12.13;;;;;;;-3.18;100.00;101574.66;5029599;28;20048;-63
2024/01/19 06:29:45;;;;;;;16.00;12.90;;;;;;;-3.18;100.00;101582.28;5029967;28;20076;-63
2024/01/19 06:32:10;;;;;;;14.77;12.53;;;;;;;-3.17;100.00;101573.94;5029580;28;20038;-63
2024/01/19 06:34:38;;;;;;;13.80;12.27;;;;;;;-3.15;100.00;101584.22;5029948;28;20029;-63
2024/01/19 06:37:04;;;;;;;15.33;12.47;;;;;;;-3.16;100.00;101582.41;5029129;28;20048;-63
2024/01/19 06:39:29;;;;;;;13.67;12.17;;;;;;;-3.16;100.00;101590.03;5029731;28;20029;-63
2024/01/19 06:41:54;;;;;;;13.20;11.80;;;;;;;-3.15;100.00;101597.78;5029495;28;20048;-63
2024/01/19 06:44:19;;;;;;;19.23;12.87;;;;;;;-3.17;100.00;101589.16;5029863;28;20040;-63
2024/01/19 06:46:46;;;;;;;16.67;11.50;;;;;;;-3.17;100.00;101580.63;5029386;28;20380;-63
2024/01/19 06:49:11;;;;;;;13.17;11.90;;;;;;;-3.18;100.00;101587.34;5029740;28;20048;-63
2024/01/19 06:51:37;;;;;;;16.43;12.40;;;;;;;-3.18;100.00;101588.97;5028937;28;20050;-64
2024/01/19 06:54:03;;;;;;;14.70;12.03;;;;;;;-3.19;100.00;101590.63;5029561;28;20021;-63
2024/01/19 06:56:28;;;;;;;14.40;11.77;;;;;;;-3.22;100.00;101587.78;5029105;28;20033;-63
2024/01/19 06:58:54;;;;;;;14.50;12.00;;;;;;;-3.26;100.00;101593.31;5029341;28;20515;-63
2024/01/19 07:01:20;;;;;;;14.97;12.53;;;;;;;-3.25;100.00;101595.06;5029817;28;20183;-63
2024/01/19 07:03:45;;;;;;;12.97;11.67;;;;;;;-3.25;100.00;101605.22;5029143;28;20037;-63
2024/01/19 07:06:10;;;;;;;17.10;12.57;;;;;;;-3.31;100.00;101602.97;5028850;28;20501;-63
2024/01/19 07:08:36;;;;;;;15.33;11.87;;;;;;;-3.31;100.00;101612.22;5028972;28;20053;-63
2024/01/19 07:11:01;;;;;;;17.17;12.87;;;;;;;-3.30;100.00;101624.16;5029016;28;20462;-64
2024/01/19 07:13:26;;;;;;;17.90;11.43;;;;;;;-3.34;100.00;101620.41;5028681;28;20021;-63
2024/01/19 07:15:51;;;;;;;16.67;11.53;;;;;;;-3.33;100.00;101624.75;5028433;28;20036;-63
2024/01/19 07:18:17;;;;;;;17.33;12.17;;;;;;;-3.36;100.00;101631.16;5028090;28;20507;-63
2024/01/19 07:20:43;;;;;;;16.43;12.03;;;;;;;-3.38;100.00;101634.41;5027654;28;20032;-63
2024/01/19 07:23:08;;;;;;;17.03;12.67;;;;;;;-3.41;100.00;101644.25;5027914;28;20055;-63
2024/01/19 07:25:33;;;;;;;16.80;13.27;;;;;;;-3.41;100.00;101641.72;5026172;28;20090;-63
2024/01/19 07:27:59;;;;;;;13.60;10.97;;;;;;;-3.42;100.00;101647.50;5025050;28;20073;-63
2024/01/19 07:30:24;;;;;;;20.13;13.07;;;;;;;-3.43;100.00;101648.25;5027461;28;20478;-63
2024/01/19 07:32:49;;;;;;;12.90;11.57;;;;;;;-3.43;100.00;101655.88;5027785;28;20390;-63
2024/01/19 07:35:15;;;;;;;12.73;11.43;;;;;;;-3.45;100.00;101647.19;5028752;28;20030;-63
2024/01/19 07:37:40;;;;;;;16.73;12.23;;;;;;;-3.45;100.00;101649.75;5028557;28;20026;-63
2024/01/19 07:40:06;;;;;;;14.60;11.60;;;;;;;-3.47;100.00;101656.28;5029122;28;20041;-63
2024/01/19 07:42:31;;;;;;;16.37;11.17;;;;;;;-3.48;100.00;101657.03;5028682;28;20041;-63
2024/01/19 07:44:56;;;;;;;15.60;11.27;;;;;;;-3.48;100.00;101657.03;5028726;28;20045;-63
2024/01/19 07:47:22;;;;;;;15.23;11.80;;;;;;;-3.47;100.00;101661.34;5028155;28;20389;-63
2024/01/19 07:49:47;;;;;;;16.90;12.53;;;;;;;-3.48;100.00;101663.72;5028189;28;20100;-63
2024/01/19 07:52:12;;;;;;;16.30;12.33;;;;;;;-3.50;100.00;101671.19;5028017;28;20048;-63
2024/01/19 07:54:37;;;;;;;13.17;11.37;;;;;;;-3.48;100.00;101677.31;5028228;28;20172;-63
2024/01/19 07:57:03;;;;;;;13.97;11.80;;;;;;;-3.47;100.00;101681.63;5027667;28;20029;-63
2024/01/19 07:59:28;;;;;;;18.23;11.23;;;;;;;-3.53;100.00;101683.56;5028318;28;20037;-63
2024/01/19 08:01:54;;;;;;;13.20;11.80;;;;;;;-3.53;100.00;101681.03;5027822;28;20429;-63
2024/01/19 08:04:19;;;;;;;16.07;12.33;;;;;;;-3.55;100.00;101691.00;5028594;28;20035;-63
2024/01/19 08:06:44;;;;;;;15.87;11.83;;;;;;;-3.50;100.00;101686.41;5027977;28;20049;-63
2024/01/19 08:09:12;;;;;;;15.13;11.93;;;;;;;-3.49;100.00;101698.34;5028557;28;20033;-63
2024/01/19 08:11:37;;;;;;;16.93;12.40;;;;;;;-3.50;100.00;101699.06;5027557;28;20072;-63
2024/01/19 08:14:02;;;;;;;17.90;12.30;;;;;;;-3.48;100.00;101707.72;5027227;28;20061;-63
2024/01/19 08:16:27;;;;;;;17.23;12.67;;;;;;;-3.46;100.00;101715.50;5026909;28;20025;-62
2024/01/19 08:18:53;;;;;;;16.20;12.60;;;;;;;-3.45;100.00;101712.25;5027263;28;20049;-63
2024/01/19 08:21:19;;;;;;;15.90;12.97;;;;;;;-3.45;100.00;101715.66;5027698;28;20026;-62
2024/01/19 08:23:44;;;;;;;20.10;13.80;;;;;;;-3.43;100.00;101716.72;5028399;28;20041;-63
2024/01/19 08:26:09;;;;;;;16.83;12.97;;;;;;;-3.42;100.00;101721.03;5027393;28;20033;-63
2024/01/19 08:28:34;;;;;;;18.20;13.50;;;;;;;-3.40;100.00;101723.75;5027570;28;20485;-63
2024/01/19 08:31:00;;;;;;;20.63;14.57;;;;;;;-3.38;100.00;101722.22;5026778;28;20029;-63
2024/01/19 08:33:25;;;;;;;19.20;12.70;;;;;;;-3.36;100.00;101722.44;5026989;28;20025;-63
2024/01/19 08:35:50;;;;;;;19.37;13.27;;;;;;;-3.41;100.00;101720.31;5027231;28;20025;-63
2024/01/19 08:38:16;;;;;;;19.47;12.80;;;;;;;-3.40;100.00;101714.47;5027936;28;20029;-63
2024/01/19 08:40:41;;;;;;;18.30;13.73;;;;;;;-3.38;100.00;101727.31;5027364;28;20021;-63
2024/01/19 08:43:07;;;;;;;20.43;13.13;;;;;;;-3.35;100.00;101731.81;5027679;28;20300;-63
2024/01/19 08:45:32;;;;;;;20.47;12.67;;;;;;;-3.30;100.00;101738.25;5026803;28;20409;-63
2024/01/19 08:47:57;;;;;;;16.90;12.50;;;;;;;-3.24;100.00;101736.34;5027596;28;20041;-63
2024/01/19 08:50:23;;;;;;;14.73;12.87;;;;;;;-3.10;100.00;101739.38;5027767;28;20108;-62
2024/01/19 08:52:49;;;;;;;14.07;12.10;;;;;;;-2.96;100.00;101739.16;5027090;28;20225;-63
2024/01/19 08:55:14;;;;;;;14.07;12.00;;;;;;;-2.79;100.00;101750.13;5027155;28;20207;-63
2024/01/19 08:57:39;;;;;;;17.37;12.17;;;;;;;-2.66;100.00;101744.59;5027418;28;20075;-63
2024/01/19 09:00:07;;;;;;;16.37;12.73;;;;;;;-2.49;100.00;101753.94;5027087;28;20120;-63
2024/01/19 09:02:32;;;;;;;15.23;11.17;;;;;;;-2.37;100.00;101755.88;5027482;28;20037;-63
2024/01/19 09:04:57;;;;;;;13.03;10.50;;;;;;;-2.26;100.00;101757.84;5027194;28;20040;-63
2024/01/19 09:07:23;;;;;;;12.30;11.10;;;;;;;-2.14;100.00;101768.31;5027061;28;20024;-63
2024/01/19 09:09:48;;;;;;;13.47;10.83;;;;;;;-2.07;100.00;101769.84;5027240;28;20065;-63
2024/01/19 09:12:13;;;;;;;9.93;8.80;;;;;;;-2.01;100.00;101775.50;5027120;28;20474;-63
2024/01/19 09:14:39;;;;;;;11.80;9.27;;;;;;;-1.97;100.00;101776.69;5026498;28;20033;-63
2024/01/19 09:17:04;;;;;;;9.07;8.13;;;;;;;-1.92;100.00;101777.16;5026859;28;20033;-63
2024/01/19 09:19:29;;;;;;;10.37;7.97;;;;;;;-1.91;100.00;101786.56;5026730;28;20060;-63
2024/01/19 09:21:55;;;;;;;9.20;7.10;;;;;;;-1.94;100.00;101788.06;5026311;28;20017;-63
2024/01/19 09:24:20;;;;;;;13.17;7.80;;;;;;;-1.99;100.00;101791.81;5027012;28;20029;-63
2024/01/19 09:26:45;;;;;;;10.47;7.70;;;;;;;-1.95;100.00;101796.44;5027122;28;20068;-63
2024/01/19 09:29:10;;;;;;;9.30;8.40;;;;;;;-1.93;100.00;101806.75;5027013;28;20065;-63
2024/01/19 09:31:42;;;;;;;13.30;8.57;;;;;;;-1.93;100.00;101801.69;5026487;28;20112;-62
2024/01/19 09:34:08;;;;;;;10.37;8.20;;;;;;;-1.95;100.00;101821.84;5026314;28;20504;-63
2024/01/19 09:36:33;;;;;;;10.40;7.93;;;;;;;-1.89;100.00;101816.44;5026390;28;20022;-63
2024/01/19 09:38:58;;;;;;;13.87;8.27;;;;;;;-1.86;100.00;101831.13;5026798;28;20430;-63
2024/01/19 09:41:45;;;;;;;9.57;8.37;;;;;;;-1.86;100.00;101821.88;5026718;28;20016;-63
2024/01/19 09:44:12;;;;;;;11.27;8.77;;;;;;;-1.83;100.00;101831.41;5026200;28;20025;-63
2024/01/19 09:46:47;;;;;;;10.90;8.40;;;;;;;-1.78;100.00;101835.31;5030344;28;20655;-63
2024/01/19 09:49:38;;;;;;;11.17;8.70;;;;;;;-1.75;100.00;101827.09;5030414;28;20021;-63
2024/01/19 09:52:30;;;;;;;12.10;8.73;;;;;;;-1.75;100.00;101834.72;5029967;28;20043;-63
2024/01/19 09:54:55;;;;;;;;;;;;;;;-1.77;100.00;101831.13;5030637;28;20539;-63
2024/01/19 09:57:20;;;;;;;10.17;8.87;;;;;;;-1.75;100.00;101843.25;5030407;28;19909;-63
2024/01/19 09:59:46;;;;;;;11.83;9.17;;;;;;;-1.75;100.00;101845.78;5030624;28;20140;-63
2024/01/19 10:02:13;;;;;;;12.03;9.00;;;;;;;-1.72;100.00;101851.19;5029294;28;20378;-63
2024/01/19 10:04:39;;;;;;;11.60;9.10;;;;;;;-1.67;100.00;101851.59;5030278;28;20036;-63
2024/01/19 10:07:04;;;;;;;12.43;10.03;;;;;;;-1.64;100.00;101857.03;5030735;28;20033;-63
2024/01/19 10:09:31;;;;;;;15.57;10.27;;;;;;;-1.61;100.00;101864.03;5029715;28;20040;-63
2024/01/19 10:11:56;;;;;;;12.47;9.37;;;;;;;-1.54;100.00;101862.97;5030297;28;20111;-63
2024/01/19 10:14:23;;;;;;;12.67;10.73;;;;;;;-1.45;100.00;101866.44;5029754;28;20477;-63
2024/01/19 10:16:50;;;;;;;13.77;11.10;;;;;;;-1.39;100.00;101871.22;5017651;28;20037;-63
2024/01/19 10:19:16;;;;;;;15.40;12.00;;;;;;;-1.36;100.00;101864.78;5029367;28;20350;-63
2024/01/19 10:21:42;;;;;;;14.50;11.47;;;;;;;-1.26;100.00;101863.13;5017711;28;20188;-63
2024/01/19 10:24:14;;;;;;;17.93;11.80;;;;;;;-1.17;100.00;101863.13;5029870;28;20021;-63
2024/01/19 10:26:42;;;;;;;11.50;9.97;;;;;;;-1.08;100.00;101871.66;5029691;28;20061;-63
2024/01/19 10:29:14;;;;;;;14.27;11.00;;;;;;;-1.01;100.00;101884.19;5029587;28;20031;-63
2024/01/19 10:31:41;;;;;;;14.13;10.90;;;;;;;-0.94;100.00;101872.06;5029335;28;20138;-62
2024/01/19 10:34:26;;;;;;;10.73;9.63;;;;;;;-0.88;100.00;101878.63;5029414;28;20033;-63
2024/01/19 10:36:52;;;;;;;11.37;9.20;;;;;;;-0.80;100.00;101878.47;5030091;28;20175;-63
2024/01/19 10:39:26;;;;;;;14.73;10.00;;;;;;;-0.74;100.00;101877.38;5028736;28;20107;-63
2024/01/19 10:42:05;;;;;;;13.50;9.40;;;;;;;-0.70;100.00;101875.16;5029557;28;20063;-63
2024/01/19 10:44:30;;;;;;;12.13;9.33;;;;;;;-0.65;100.00;101876.47;5029397;28;20144;-63
2024/01/19 10:46:56;;;;;;;16.37;9.20;;;;;;;-0.61;100.00;101881.09;5029267;28;20116;-63
2024/01/19 10:49:22;;;;;;;10.57;8.40;;;;;;;-0.59;100.00;101874.50;5029719;28;20028;-63
2024/01/19 10:51:48;;;;;;;13.23;9.00;;;;;;;-0.53;100.00;101877.63;5029057;28;20049;-63
2024/01/19 10:54:26;;;;;;;13.00;8.47;;;;;;;-0.48;100.00;101880.59;5029670;28;20497;-62
2024/01/19 10:57:05;;;;;;;10.40;7.87;;;;;;;-0.39;100.00;101880.56;5028683;28;20033;-62
2024/01/19 10:59:31;;;;;;;12.63;8.23;;;;;;;-0.33;100.00;101881.16;5029401;28;20063;-63
2024/01/19 11:01:58;;;;;;;8.97;8.07;;;;;;;-0.32;100.00;101875.28;5029316;28;20184;-62